sensor_id;sensor_type;location;lat;lon;timestamp;P1;durP1;ratioP1;P2;durP2;ratioP2
21705;SDS011;11014;53.076;18.208;2023-11-21T00:00:20;17.88;;;10.57;;
21705;SDS011;11014;53.076;18.208;2023-11-21T00:03:09;18.77;;;11.60;;
21705;SDS011;11014;53.076;18.208;2023-11-21T00:08:37;20.98;;;11.95;;
21705;SDS011;11014;53.076;18.208;2023-11-21T00:14:00;20.40;;;12.65;;
21705;SDS011;11014;53.076;18.208;2023-11-21T00:16:28;18.88;;;12.30;;
21705;SDS011;11014;53.076;18.208;2023-11-21T00:18:57;18.90;;;12.13;;
21705;SDS011;11014;53.076;18.208;2023-11-21T00:21:26;18.55;;;12.07;;
21705;SDS011;11014;53.076;18.208;2023-11-21T00:23:55;18.33;;;11.52;;
21705;SDS011;11014;53.076;18.208;2023-11-21T00:26:24;17.90;;;11.55;;
21705;SDS011;11014;53.076;18.208;2023-11-21T00:29:03;18.00;;;11.85;;
21705;SDS011;11014;53.076;18.208;2023-11-21T00:31:31;19.35;;;11.25;;
21705;SDS011;11014;53.076;18.208;2023-11-21T00:34:02;19.95;;;12.10;;
21705;SDS011;11014;53.076;18.208;2023-11-21T00:36:32;18.20;;;11.80;;
21705;SDS011;11014;53.076;18.208;2023-11-21T00:39:01;18.73;;;11.60;;
21705;SDS011;11014;53.076;18.208;2023-11-21T00:41:32;19.05;;;11.60;;
21705;SDS011;11014;53.076;18.208;2023-11-21T00:44:01;16.98;;;11.57;;
21705;SDS011;11014;53.076;18.208;2023-11-21T00:46:29;19.55;;;12.45;;
21705;SDS011;11014;53.076;18.208;2023-11-21T00:48:58;20.42;;;12.45;;
21705;SDS011;11014;53.076;18.208;2023-11-21T00:51:27;18.23;;;11.85;;
21705;SDS011;11014;53.076;18.208;2023-11-21T00:53:56;17.75;;;11.48;;
21705;SDS011;11014;53.076;18.208;2023-11-21T00:56:24;19.65;;;11.82;;
21705;SDS011;11014;53.076;18.208;2023-11-21T00:58:53;20.88;;;12.65;;
21705;SDS011;11014;53.076;18.208;2023-11-21T01:01:22;22.13;;;12.82;;
21705;SDS011;11014;53.076;18.208;2023-11-21T01:03:51;23.17;;;12.98;;
21705;SDS011;11014;53.076;18.208;2023-11-21T01:06:20;21.92;;;13.40;;
21705;SDS011;11014;53.076;18.208;2023-11-21T01:08:49;21.60;;;12.77;;
21705;SDS011;11014;53.076;18.208;2023-11-21T01:11:17;19.58;;;12.30;;
21705;SDS011;11014;53.076;18.208;2023-11-21T01:13:46;22.20;;;12.65;;
21705;SDS011;11014;53.076;18.208;2023-11-21T01:16:15;19.08;;;11.55;;
21705;SDS011;11014;53.076;18.208;2023-11-21T01:18:45;16.00;;;10.65;;
21705;SDS011;11014;53.076;18.208;2023-11-21T01:21:14;18.08;;;11.23;;
21705;SDS011;11014;53.076;18.208;2023-11-21T01:23:45;14.18;;;9.93;;
21705;SDS011;11014;53.076;18.208;2023-11-21T01:26:16;18.80;;;11.23;;
21705;SDS011;11014;53.076;18.208;2023-11-21T01:28:45;15.93;;;10.63;;
21705;SDS011;11014;53.076;18.208;2023-11-21T01:31:17;17.42;;;10.93;;
21705;SDS011;11014;53.076;18.208;2023-11-21T01:33:47;16.95;;;10.32;;
21705;SDS011;11014;53.076;18.208;2023-11-21T01:36:16;18.75;;;11.07;;
21705;SDS011;11014;53.076;18.208;2023-11-21T01:38:46;18.25;;;11.25;;
21705;SDS011;11014;53.076;18.208;2023-11-21T01:41:16;19.20;;;11.10;;
21705;SDS011;11014;53.076;18.208;2023-11-21T01:43:46;18.20;;;10.88;;
21705;SDS011;11014;53.076;18.208;2023-11-21T01:46:14;15.95;;;10.85;;
21705;SDS011;11014;53.076;18.208;2023-11-21T01:48:43;18.48;;;11.50;;
21705;SDS011;11014;53.076;18.208;2023-11-21T01:51:13;18.30;;;11.07;;
21705;SDS011;11014;53.076;18.208;2023-11-21T01:53:42;17.80;;;12.10;;
21705;SDS011;11014;53.076;18.208;2023-11-21T01:56:13;17.40;;;10.27;;
21705;SDS011;11014;53.076;18.208;2023-11-21T01:58:43;18.77;;;11.63;;
21705;SDS011;11014;53.076;18.208;2023-11-21T02:01:15;20.13;;;12.52;;
21705;SDS011;11014;53.076;18.208;2023-11-21T02:03:44;19.45;;;11.45;;
21705;SDS011;11014;53.076;18.208;2023-11-21T02:06:13;17.55;;;11.05;;
21705;SDS011;11014;53.076;18.208;2023-11-21T02:08:42;20.38;;;12.25;;
21705;SDS011;11014;53.076;18.208;2023-11-21T02:11:12;20.60;;;12.40;;
21705;SDS011;11014;53.076;18.208;2023-11-21T02:13:41;18.70;;;11.82;;
21705;SDS011;11014;53.076;18.208;2023-11-21T02:16:13;19.73;;;11.65;;
21705;SDS011;11014;53.076;18.208;2023-11-21T02:18:43;18.60;;;12.10;;
21705;SDS011;11014;53.076;18.208;2023-11-21T02:21:12;16.75;;;10.80;;
21705;SDS011;11014;53.076;18.208;2023-11-21T02:23:41;13.93;;;9.43;;
21705;SDS011;11014;53.076;18.208;2023-11-21T02:28:42;17.73;;;10.23;;
21705;SDS011;11014;53.076;18.208;2023-11-21T02:31:11;17.48;;;10.52;;
21705;SDS011;11014;53.076;18.208;2023-11-21T02:33:47;16.42;;;10.40;;
21705;SDS011;11014;53.076;18.208;2023-11-21T02:36:15;19.40;;;11.57;;
21705;SDS011;11014;53.076;18.208;2023-11-21T02:38:44;18.15;;;11.85;;
21705;SDS011;11014;53.076;18.208;2023-11-21T02:41:13;19.88;;;12.48;;
21705;SDS011;11014;53.076;18.208;2023-11-21T02:43:42;19.92;;;11.95;;
21705;SDS011;11014;53.076;18.208;2023-11-21T02:46:12;19.52;;;11.60;;
21705;SDS011;11014;53.076;18.208;2023-11-21T02:48:41;19.77;;;12.38;;
21705;SDS011;11014;53.076;18.208;2023-11-21T02:51:10;21.58;;;12.38;;
21705;SDS011;11014;53.076;18.208;2023-11-21T02:53:40;20.27;;;11.55;;
21705;SDS011;11014;53.076;18.208;2023-11-21T02:56:08;19.15;;;12.23;;
21705;SDS011;11014;53.076;18.208;2023-11-21T03:01:31;19.20;;;12.07;;
21705;SDS011;11014;53.076;18.208;2023-11-21T03:04:00;17.67;;;11.18;;
21705;SDS011;11014;53.076;18.208;2023-11-21T03:06:29;17.88;;;11.18;;
21705;SDS011;11014;53.076;18.208;2023-11-21T03:08:58;17.48;;;10.95;;
21705;SDS011;11014;53.076;18.208;2023-11-21T03:11:27;19.25;;;10.95;;
21705;SDS011;11014;53.076;18.208;2023-11-21T03:13:56;17.77;;;10.60;;
21705;SDS011;11014;53.076;18.208;2023-11-21T03:16:26;16.30;;;10.48;;
21705;SDS011;11014;53.076;18.208;2023-11-21T03:18:55;18.92;;;10.95;;
21705;SDS011;11014;53.076;18.208;2023-11-21T03:21:24;19.67;;;12.43;;
21705;SDS011;11014;53.076;18.208;2023-11-21T03:23:54;17.98;;;11.23;;
21705;SDS011;11014;53.076;18.208;2023-11-21T03:26:23;17.30;;;11.77;;
21705;SDS011;11014;53.076;18.208;2023-11-21T03:29:09;18.42;;;10.77;;
21705;SDS011;11014;53.076;18.208;2023-11-21T03:31:38;20.58;;;11.73;;
21705;SDS011;11014;53.076;18.208;2023-11-21T03:34:10;19.38;;;11.77;;
21705;SDS011;11014;53.076;18.208;2023-11-21T03:36:43;19.10;;;11.88;;
21705;SDS011;11014;53.076;18.208;2023-11-21T03:39:12;17.92;;;10.95;;
21705;SDS011;11014;53.076;18.208;2023-11-21T03:41:41;24.05;;;12.00;;
21705;SDS011;11014;53.076;18.208;2023-11-21T03:44:11;22.50;;;12.32;;
21705;SDS011;11014;53.076;18.208;2023-11-21T03:46:39;20.30;;;11.82;;
21705;SDS011;11014;53.076;18.208;2023-11-21T03:49:12;24.65;;;13.38;;
21705;SDS011;11014;53.076;18.208;2023-11-21T03:51:42;19.95;;;12.18;;
21705;SDS011;11014;53.076;18.208;2023-11-21T03:54:11;26.00;;;12.80;;
21705;SDS011;11014;53.076;18.208;2023-11-21T03:56:40;20.52;;;11.95;;
21705;SDS011;11014;53.076;18.208;2023-11-21T03:59:09;23.02;;;13.98;;
21705;SDS011;11014;53.076;18.208;2023-11-21T04:01:37;24.80;;;14.05;;
21705;SDS011;11014;53.076;18.208;2023-11-21T04:04:06;25.08;;;14.15;;
21705;SDS011;11014;53.076;18.208;2023-11-21T04:06:35;23.33;;;13.80;;
21705;SDS011;11014;53.076;18.208;2023-11-21T04:09:06;23.60;;;13.25;;
21705;SDS011;11014;53.076;18.208;2023-11-21T04:11:34;23.48;;;12.60;;
21705;SDS011;11014;53.076;18.208;2023-11-21T04:14:03;23.15;;;13.65;;
21705;SDS011;11014;53.076;18.208;2023-11-21T04:16:32;25.92;;;13.48;;
21705;SDS011;11014;53.076;18.208;2023-11-21T04:19:02;21.92;;;13.57;;
21705;SDS011;11014;53.076;18.208;2023-11-21T04:21:31;26.95;;;14.77;;
21705;SDS011;11014;53.076;18.208;2023-11-21T04:24:01;28.70;;;14.52;;
21705;SDS011;11014;53.076;18.208;2023-11-21T04:26:31;32.33;;;17.70;;
21705;SDS011;11014;53.076;18.208;2023-11-21T04:29:00;29.42;;;15.38;;
21705;SDS011;11014;53.076;18.208;2023-11-21T04:31:29;27.02;;;14.50;;
21705;SDS011;11014;53.076;18.208;2023-11-21T04:33:57;26.40;;;14.07;;
21705;SDS011;11014;53.076;18.208;2023-11-21T04:36:26;26.10;;;14.02;;
21705;SDS011;11014;53.076;18.208;2023-11-21T04:38:57;26.15;;;14.02;;
21705;SDS011;11014;53.076;18.208;2023-11-21T04:41:26;22.45;;;12.68;;
21705;SDS011;11014;53.076;18.208;2023-11-21T04:43:56;24.77;;;13.40;;
21705;SDS011;11014;53.076;18.208;2023-11-21T04:46:24;24.92;;;13.18;;
21705;SDS011;11014;53.076;18.208;2023-11-21T04:48:55;23.35;;;12.70;;
21705;SDS011;11014;53.076;18.208;2023-11-21T04:51:27;24.00;;;12.52;;
21705;SDS011;11014;53.076;18.208;2023-11-21T04:53:55;21.15;;;12.18;;
21705;SDS011;11014;53.076;18.208;2023-11-21T04:56:24;19.35;;;11.15;;
21705;SDS011;11014;53.076;18.208;2023-11-21T04:58:53;20.02;;;12.68;;
21705;SDS011;11014;53.076;18.208;2023-11-21T05:01:22;23.65;;;12.52;;
21705;SDS011;11014;53.076;18.208;2023-11-21T05:03:51;22.90;;;12.90;;
21705;SDS011;11014;53.076;18.208;2023-11-21T05:06:23;20.83;;;12.10;;
21705;SDS011;11014;53.076;18.208;2023-11-21T05:08:52;23.65;;;12.30;;
21705;SDS011;11014;53.076;18.208;2023-11-21T05:11:27;22.77;;;11.75;;
21705;SDS011;11014;53.076;18.208;2023-11-21T05:13:58;22.48;;;12.57;;
21705;SDS011;11014;53.076;18.208;2023-11-21T05:16:30;24.00;;;13.27;;
21705;SDS011;11014;53.076;18.208;2023-11-21T05:18:58;25.00;;;13.68;;
21705;SDS011;11014;53.076;18.208;2023-11-21T05:21:31;20.65;;;13.25;;
21705;SDS011;11014;53.076;18.208;2023-11-21T05:24:04;19.20;;;11.77;;
21705;SDS011;11014;53.076;18.208;2023-11-21T05:26:39;22.80;;;13.20;;
21705;SDS011;11014;53.076;18.208;2023-11-21T05:29:08;20.48;;;12.35;;
21705;SDS011;11014;53.076;18.208;2023-11-21T05:31:38;24.15;;;13.10;;
21705;SDS011;11014;53.076;18.208;2023-11-21T05:34:07;22.98;;;13.18;;
21705;SDS011;11014;53.076;18.208;2023-11-21T05:36:35;25.58;;;14.20;;
21705;SDS011;11014;53.076;18.208;2023-11-21T05:39:04;25.48;;;14.07;;
21705;SDS011;11014;53.076;18.208;2023-11-21T05:41:33;21.42;;;12.75;;
21705;SDS011;11014;53.076;18.208;2023-11-21T05:44:03;24.13;;;12.93;;
21705;SDS011;11014;53.076;18.208;2023-11-21T05:46:32;23.08;;;12.77;;
21705;SDS011;11014;53.076;18.208;2023-11-21T05:49:02;24.20;;;13.13;;
21705;SDS011;11014;53.076;18.208;2023-11-21T05:51:30;26.77;;;12.80;;
21705;SDS011;11014;53.076;18.208;2023-11-21T05:53:59;22.73;;;13.10;;
21705;SDS011;11014;53.076;18.208;2023-11-21T05:56:28;21.60;;;11.55;;
21705;SDS011;11014;53.076;18.208;2023-11-21T05:58:57;21.70;;;12.82;;
21705;SDS011;11014;53.076;18.208;2023-11-21T06:01:25;33.38;;;13.07;;
21705;SDS011;11014;53.076;18.208;2023-11-21T06:03:56;24.30;;;13.77;;
21705;SDS011;11014;53.076;18.208;2023-11-21T06:06:26;21.92;;;13.45;;
21705;SDS011;11014;53.076;18.208;2023-11-21T06:08:55;22.02;;;12.70;;
21705;SDS011;11014;53.076;18.208;2023-11-21T06:11:24;23.00;;;12.70;;
21705;SDS011;11014;53.076;18.208;2023-11-21T06:13:53;27.38;;;12.88;;
21705;SDS011;11014;53.076;18.208;2023-11-21T06:16:21;23.40;;;12.98;;
21705;SDS011;11014;53.076;18.208;2023-11-21T06:18:53;19.45;;;12.20;;
21705;SDS011;11014;53.076;18.208;2023-11-21T06:21:21;22.73;;;11.73;;
21705;SDS011;11014;53.076;18.208;2023-11-21T06:23:50;22.17;;;12.52;;
21705;SDS011;11014;53.076;18.208;2023-11-21T06:26:21;18.90;;;11.52;;
21705;SDS011;11014;53.076;18.208;2023-11-21T06:28:49;18.73;;;11.98;;
21705;SDS011;11014;53.076;18.208;2023-11-21T06:31:19;21.48;;;12.10;;
21705;SDS011;11014;53.076;18.208;2023-11-21T06:33:50;21.98;;;12.10;;
21705;SDS011;11014;53.076;18.208;2023-11-21T06:36:20;23.25;;;12.02;;
21705;SDS011;11014;53.076;18.208;2023-11-21T06:38:49;24.13;;;13.07;;
21705;SDS011;11014;53.076;18.208;2023-11-21T06:41:18;22.95;;;13.32;;
21705;SDS011;11014;53.076;18.208;2023-11-21T06:43:46;25.38;;;13.00;;
21705;SDS011;11014;53.076;18.208;2023-11-21T06:46:15;26.17;;;13.90;;
21705;SDS011;11014;53.076;18.208;2023-11-21T06:48:44;25.95;;;13.48;;
21705;SDS011;11014;53.076;18.208;2023-11-21T06:51:13;26.38;;;15.10;;
21705;SDS011;11014;53.076;18.208;2023-11-21T06:53:42;22.40;;;12.98;;
21705;SDS011;11014;53.076;18.208;2023-11-21T06:56:17;36.38;;;17.50;;
21705;SDS011;11014;53.076;18.208;2023-11-21T06:58:46;23.50;;;13.38;;
21705;SDS011;11014;53.076;18.208;2023-11-21T07:01:14;18.67;;;11.93;;
21705;SDS011;11014;53.076;18.208;2023-11-21T07:03:43;21.40;;;12.45;;
21705;SDS011;11014;53.076;18.208;2023-11-21T07:06:12;20.92;;;12.32;;
21705;SDS011;11014;53.076;18.208;2023-11-21T07:11:13;20.02;;;10.65;;
21705;SDS011;11014;53.076;18.208;2023-11-21T07:13:41;21.20;;;11.52;;
21705;SDS011;11014;53.076;18.208;2023-11-21T07:16:10;19.30;;;10.95;;
21705;SDS011;11014;53.076;18.208;2023-11-21T07:18:39;20.38;;;11.05;;
21705;SDS011;11014;53.076;18.208;2023-11-21T07:21:08;19.45;;;11.13;;
21705;SDS011;11014;53.076;18.208;2023-11-21T07:23:37;18.17;;;10.32;;
21705;SDS011;11014;53.076;18.208;2023-11-21T07:26:06;16.08;;;9.93;;
21705;SDS011;11014;53.076;18.208;2023-11-21T07:28:37;17.60;;;10.27;;
21705;SDS011;11014;53.076;18.208;2023-11-21T07:31:06;19.80;;;10.23;;
21705;SDS011;11014;53.076;18.208;2023-11-21T07:33:34;19.65;;;10.63;;
21705;SDS011;11014;53.076;18.208;2023-11-21T07:36:03;17.63;;;10.30;;
21705;SDS011;11014;53.076;18.208;2023-11-21T07:38:32;19.38;;;10.82;;
21705;SDS011;11014;53.076;18.208;2023-11-21T07:41:01;18.45;;;10.35;;
21705;SDS011;11014;53.076;18.208;2023-11-21T07:43:29;20.95;;;10.88;;
21705;SDS011;11014;53.076;18.208;2023-11-21T07:46:04;17.23;;;10.27;;
21705;SDS011;11014;53.076;18.208;2023-11-21T07:48:33;17.38;;;10.60;;
21705;SDS011;11014;53.076;18.208;2023-11-21T07:51:02;17.80;;;10.57;;
21705;SDS011;11014;53.076;18.208;2023-11-21T07:53:33;19.63;;;11.73;;
21705;SDS011;11014;53.076;18.208;2023-11-21T07:56:03;18.65;;;10.30;;
21705;SDS011;11014;53.076;18.208;2023-11-21T07:58:32;19.38;;;10.55;;
21705;SDS011;11014;53.076;18.208;2023-11-21T08:01:02;18.25;;;11.52;;
21705;SDS011;11014;53.076;18.208;2023-11-21T08:03:31;16.67;;;10.02;;
21705;SDS011;11014;53.076;18.208;2023-11-21T08:06:00;19.55;;;11.40;;
21705;SDS011;11014;53.076;18.208;2023-11-21T08:08:31;18.58;;;11.18;;
21705;SDS011;11014;53.076;18.208;2023-11-21T08:11:00;18.98;;;10.60;;
21705;SDS011;11014;53.076;18.208;2023-11-21T08:13:29;18.83;;;11.40;;
21705;SDS011;11014;53.076;18.208;2023-11-21T08:16:01;23.73;;;13.43;;
21705;SDS011;11014;53.076;18.208;2023-11-21T08:18:31;22.65;;;13.05;;
21705;SDS011;11014;53.076;18.208;2023-11-21T08:21:00;18.70;;;10.20;;
21705;SDS011;11014;53.076;18.208;2023-11-21T08:23:29;17.02;;;9.95;;
21705;SDS011;11014;53.076;18.208;2023-11-21T08:25:58;18.00;;;10.52;;
21705;SDS011;11014;53.076;18.208;2023-11-21T08:28:28;18.38;;;10.15;;
21705;SDS011;11014;53.076;18.208;2023-11-21T08:30:57;20.35;;;10.40;;
21705;SDS011;11014;53.076;18.208;2023-11-21T08:33:25;21.30;;;10.52;;
21705;SDS011;11014;53.076;18.208;2023-11-21T08:35:54;22.33;;;12.15;;
21705;SDS011;11014;53.076;18.208;2023-11-21T08:38:23;33.15;;;16.48;;
21705;SDS011;11014;53.076;18.208;2023-11-21T08:40:51;16.75;;;10.93;;
21705;SDS011;11014;53.076;18.208;2023-11-21T08:43:20;19.98;;;10.55;;
21705;SDS011;11014;53.076;18.208;2023-11-21T08:45:49;20.10;;;10.77;;
21705;SDS011;11014;53.076;18.208;2023-11-21T08:48:17;19.25;;;10.65;;
21705;SDS011;11014;53.076;18.208;2023-11-21T08:50:46;25.45;;;12.48;;
21705;SDS011;11014;53.076;18.208;2023-11-21T08:53:14;22.85;;;12.25;;
21705;SDS011;11014;53.076;18.208;2023-11-21T08:55:44;26.67;;;13.10;;
21705;SDS011;11014;53.076;18.208;2023-11-21T08:58:12;21.75;;;11.73;;
21705;SDS011;11014;53.076;18.208;2023-11-21T09:00:41;20.45;;;11.60;;
21705;SDS011;11014;53.076;18.208;2023-11-21T09:03:10;21.90;;;11.70;;
21705;SDS011;11014;53.076;18.208;2023-11-21T09:05:39;20.55;;;11.20;;
21705;SDS011;11014;53.076;18.208;2023-11-21T09:08:07;20.10;;;10.82;;
21705;SDS011;11014;53.076;18.208;2023-11-21T09:10:36;22.00;;;11.57;;
21705;SDS011;11014;53.076;18.208;2023-11-21T09:13:05;27.23;;;13.48;;
21705;SDS011;11014;53.076;18.208;2023-11-21T09:15:33;22.23;;;11.30;;
21705;SDS011;11014;53.076;18.208;2023-11-21T09:18:03;20.70;;;11.30;;
21705;SDS011;11014;53.076;18.208;2023-11-21T09:20:33;19.63;;;9.77;;
21705;SDS011;11014;53.076;18.208;2023-11-21T09:23:01;21.00;;;11.02;;
21705;SDS011;11014;53.076;18.208;2023-11-21T09:25:30;15.68;;;9.38;;
21705;SDS011;11014;53.076;18.208;2023-11-21T09:27:58;16.58;;;9.25;;
21705;SDS011;11014;53.076;18.208;2023-11-21T09:30:28;20.02;;;10.55;;
21705;SDS011;11014;53.076;18.208;2023-11-21T09:32:56;27.40;;;13.07;;
21705;SDS011;11014;53.076;18.208;2023-11-21T09:35:26;24.02;;;13.25;;
21705;SDS011;11014;53.076;18.208;2023-11-21T09:37:55;28.10;;;14.10;;
21705;SDS011;11014;53.076;18.208;2023-11-21T09:40:24;23.33;;;10.93;;
21705;SDS011;11014;53.076;18.208;2023-11-21T09:45:27;19.33;;;10.30;;
21705;SDS011;11014;53.076;18.208;2023-11-21T09:47:57;23.73;;;11.07;;
21705;SDS011;11014;53.076;18.208;2023-11-21T09:50:26;19.20;;;10.95;;
21705;SDS011;11014;53.076;18.208;2023-11-21T09:55:51;22.27;;;11.10;;
21705;SDS011;11014;53.076;18.208;2023-11-21T09:58:20;17.85;;;10.48;;
21705;SDS011;11014;53.076;18.208;2023-11-21T10:00:54;19.55;;;10.40;;
21705;SDS011;11014;53.076;18.208;2023-11-21T10:05:56;18.63;;;10.40;;
21705;SDS011;11014;53.076;18.208;2023-11-21T10:08:28;20.33;;;12.20;;
21705;SDS011;11014;53.076;18.208;2023-11-21T10:11:17;22.80;;;12.55;;
21705;SDS011;11014;53.076;18.208;2023-11-21T10:13:47;21.57;;;11.77;;
21705;SDS011;11014;53.076;18.208;2023-11-21T10:16:22;22.45;;;11.35;;
21705;SDS011;11014;53.076;18.208;2023-11-21T10:18:53;21.02;;;11.23;;
21705;SDS011;11014;53.076;18.208;2023-11-21T10:21:38;16.08;;;10.65;;
21705;SDS011;11014;53.076;18.208;2023-11-21T10:24:07;17.65;;;10.73;;
21705;SDS011;11014;53.076;18.208;2023-11-21T10:26:36;15.55;;;9.70;;
21705;SDS011;11014;53.076;18.208;2023-11-21T10:29:19;15.32;;;9.43;;
21705;SDS011;11014;53.076;18.208;2023-11-21T10:31:50;18.05;;;9.38;;
21705;SDS011;11014;53.076;18.208;2023-11-21T10:34:19;18.45;;;9.95;;
21705;SDS011;11014;53.076;18.208;2023-11-21T10:36:49;16.67;;;9.52;;
21705;SDS011;11014;53.076;18.208;2023-11-21T10:39:21;15.05;;;9.05;;
21705;SDS011;11014;53.076;18.208;2023-11-21T10:41:54;14.27;;;9.27;;
21705;SDS011;11014;53.076;18.208;2023-11-21T10:44:23;16.52;;;9.52;;
21705;SDS011;11014;53.076;18.208;2023-11-21T10:46:53;16.55;;;8.82;;
21705;SDS011;11014;53.076;18.208;2023-11-21T10:49:25;16.83;;;9.95;;
21705;SDS011;11014;53.076;18.208;2023-11-21T10:51:56;15.68;;;9.82;;
21705;SDS011;11014;53.076;18.208;2023-11-21T10:54:25;18.35;;;10.10;;
21705;SDS011;11014;53.076;18.208;2023-11-21T10:56:58;15.65;;;10.02;;
21705;SDS011;11014;53.076;18.208;2023-11-21T10:59:29;16.92;;;10.10;;
21705;SDS011;11014;53.076;18.208;2023-11-21T11:02:01;18.55;;;10.23;;
21705;SDS011;11014;53.076;18.208;2023-11-21T11:04:32;17.25;;;10.60;;
21705;SDS011;11014;53.076;18.208;2023-11-21T11:07:07;17.52;;;9.98;;
21705;SDS011;11014;53.076;18.208;2023-11-21T11:09:40;15.82;;;9.05;;
21705;SDS011;11014;53.076;18.208;2023-11-21T11:12:09;16.98;;;9.63;;
21705;SDS011;11014;53.076;18.208;2023-11-21T11:14:40;20.48;;;10.38;;
21705;SDS011;11014;53.076;18.208;2023-11-21T11:17:10;18.85;;;10.45;;
21705;SDS011;11014;53.076;18.208;2023-11-21T11:19:39;20.23;;;11.35;;
21705;SDS011;11014;53.076;18.208;2023-11-21T11:37:07;15.63;;;9.75;;
21705;SDS011;11014;53.076;18.208;2023-11-21T11:39:39;17.80;;;9.80;;
21705;SDS011;11014;53.076;18.208;2023-11-21T11:42:13;14.65;;;9.13;;
21705;SDS011;11014;53.076;18.208;2023-11-21T11:47:16;13.52;;;8.45;;
21705;SDS011;11014;53.076;18.208;2023-11-21T11:49:56;16.23;;;9.60;;
21705;SDS011;11014;53.076;18.208;2023-11-21T11:52:32;15.50;;;9.45;;
21705;SDS011;11014;53.076;18.208;2023-11-21T11:57:41;12.85;;;7.53;;
21705;SDS011;11014;53.076;18.208;2023-11-21T12:02:46;10.10;;;6.60;;
21705;SDS011;11014;53.076;18.208;2023-11-21T12:05:20;13.05;;;8.00;;
21705;SDS011;11014;53.076;18.208;2023-11-21T12:07:51;17.23;;;9.20;;
21705;SDS011;11014;53.076;18.208;2023-11-21T12:10:23;14.98;;;8.40;;
21705;SDS011;11014;53.076;18.208;2023-11-21T12:12:57;15.23;;;8.90;;
21705;SDS011;11014;53.076;18.208;2023-11-21T12:15:27;15.93;;;9.07;;
21705;SDS011;11014;53.076;18.208;2023-11-21T12:17:59;15.70;;;9.30;;
21705;SDS011;11014;53.076;18.208;2023-11-21T12:20:28;17.48;;;9.40;;
21705;SDS011;11014;53.076;18.208;2023-11-21T12:23:00;14.02;;;8.60;;
21705;SDS011;11014;53.076;18.208;2023-11-21T12:25:30;14.38;;;8.50;;
21705;SDS011;11014;53.076;18.208;2023-11-21T12:28:01;15.65;;;9.00;;
21705;SDS011;11014;53.076;18.208;2023-11-21T12:30:33;14.55;;;9.30;;
21705;SDS011;11014;53.076;18.208;2023-11-21T12:33:04;16.55;;;8.95;;
21705;SDS011;11014;53.076;18.208;2023-11-21T12:35:35;15.95;;;8.88;;
21705;SDS011;11014;53.076;18.208;2023-11-21T12:38:04;14.07;;;8.60;;
21705;SDS011;11014;53.076;18.208;2023-11-21T12:40:34;16.65;;;9.52;;
21705;SDS011;11014;53.076;18.208;2023-11-21T12:43:02;18.05;;;9.13;;
21705;SDS011;11014;53.076;18.208;2023-11-21T12:45:33;13.82;;;8.25;;
21705;SDS011;11014;53.076;18.208;2023-11-21T12:48:02;12.65;;;7.68;;
21705;SDS011;11014;53.076;18.208;2023-11-21T12:50:37;12.88;;;7.10;;
21705;SDS011;11014;53.076;18.208;2023-11-21T12:53:07;12.55;;;7.93;;
21705;SDS011;11014;53.076;18.208;2023-11-21T12:55:38;13.02;;;7.10;;
21705;SDS011;11014;53.076;18.208;2023-11-21T12:58:09;13.75;;;8.85;;
21705;SDS011;11014;53.076;18.208;2023-11-21T13:00:42;11.90;;;7.28;;
21705;SDS011;11014;53.076;18.208;2023-11-21T13:03:13;12.75;;;6.63;;
21705;SDS011;11014;53.076;18.208;2023-11-21T13:05:52;10.80;;;7.10;;
21705;SDS011;11014;53.076;18.208;2023-11-21T13:08:26;9.48;;;6.40;;
21705;SDS011;11014;53.076;18.208;2023-11-21T13:10:57;12.32;;;7.05;;
21705;SDS011;11014;53.076;18.208;2023-11-21T13:13:28;12.20;;;7.32;;
21705;SDS011;11014;53.076;18.208;2023-11-21T13:16:01;13.68;;;7.60;;
21705;SDS011;11014;53.076;18.208;2023-11-21T13:18:34;13.57;;;7.70;;
21705;SDS011;11014;53.076;18.208;2023-11-21T13:21:03;10.52;;;6.85;;
21705;SDS011;11014;53.076;18.208;2023-11-21T13:23:42;10.27;;;6.07;;
21705;SDS011;11014;53.076;18.208;2023-11-21T13:26:14;12.35;;;6.97;;
21705;SDS011;11014;53.076;18.208;2023-11-21T13:28:44;9.48;;;6.28;;
21705;SDS011;11014;53.076;18.208;2023-11-21T13:31:15;10.80;;;6.00;;
21705;SDS011;11014;53.076;18.208;2023-11-21T13:33:51;9.15;;;5.90;;
21705;SDS011;11014;53.076;18.208;2023-11-21T13:36:25;9.30;;;5.90;;
21705;SDS011;11014;53.076;18.208;2023-11-21T13:38:54;10.77;;;6.32;;
21705;SDS011;11014;53.076;18.208;2023-11-21T13:41:23;10.30;;;6.15;;
21705;SDS011;11014;53.076;18.208;2023-11-21T13:43:59;9.43;;;6.10;;
21705;SDS011;11014;53.076;18.208;2023-11-21T13:46:44;13.32;;;7.22;;
21705;SDS011;11014;53.076;18.208;2023-11-21T13:49:14;10.05;;;6.68;;
21705;SDS011;11014;53.076;18.208;2023-11-21T13:51:44;14.07;;;8.18;;
21705;SDS011;11014;53.076;18.208;2023-11-21T13:54:16;13.48;;;7.65;;
21705;SDS011;11014;53.076;18.208;2023-11-21T13:56:45;13.20;;;7.72;;
21705;SDS011;11014;53.076;18.208;2023-11-21T13:59:14;13.40;;;8.30;;
21705;SDS011;11014;53.076;18.208;2023-11-21T14:01:54;16.83;;;8.10;;
21705;SDS011;11014;53.076;18.208;2023-11-21T14:04:25;14.18;;;8.02;;
21705;SDS011;11014;53.076;18.208;2023-11-21T14:06:58;11.05;;;6.80;;
21705;SDS011;11014;53.076;18.208;2023-11-21T14:09:29;14.07;;;7.32;;
21705;SDS011;11014;53.076;18.208;2023-11-21T14:12:13;10.77;;;6.22;;
21705;SDS011;11014;53.076;18.208;2023-11-21T14:14:44;12.55;;;6.78;;
21705;SDS011;11014;53.076;18.208;2023-11-21T14:17:16;13.73;;;7.38;;
21705;SDS011;11014;53.076;18.208;2023-11-21T14:19:44;11.35;;;7.03;;
21705;SDS011;11014;53.076;18.208;2023-11-21T14:22:13;22.85;;;13.60;;
21705;SDS011;11014;53.076;18.208;2023-11-21T14:24:42;16.67;;;8.82;;
21705;SDS011;11014;53.076;18.208;2023-11-21T14:27:15;11.40;;;6.97;;
21705;SDS011;11014;53.076;18.208;2023-11-21T14:29:45;24.30;;;12.55;;
21705;SDS011;11014;53.076;18.208;2023-11-21T14:32:15;19.52;;;11.20;;
21705;SDS011;11014;53.076;18.208;2023-11-21T14:34:45;20.00;;;12.07;;
21705;SDS011;11014;53.076;18.208;2023-11-21T14:37:15;20.92;;;13.85;;
21705;SDS011;11014;53.076;18.208;2023-11-21T14:39:44;23.08;;;12.73;;
21705;SDS011;11014;53.076;18.208;2023-11-21T14:42:16;28.55;;;15.38;;
21705;SDS011;11014;53.076;18.208;2023-11-21T14:44:53;18.23;;;10.63;;
21705;SDS011;11014;53.076;18.208;2023-11-21T14:47:28;16.92;;;8.57;;
21705;SDS011;11014;53.076;18.208;2023-11-21T14:50:01;17.83;;;10.18;;
21705;SDS011;11014;53.076;18.208;2023-11-21T14:52:55;18.95;;;11.27;;
21705;SDS011;11014;53.076;18.208;2023-11-21T14:55:45;15.32;;;9.32;;
21705;SDS011;11014;53.076;18.208;2023-11-21T14:58:26;17.83;;;10.98;;
21705;SDS011;11014;53.076;18.208;2023-11-21T15:00:58;16.80;;;8.82;;
21705;SDS011;11014;53.076;18.208;2023-11-21T15:03:28;15.45;;;9.80;;
21705;SDS011;11014;53.076;18.208;2023-11-21T15:06:03;15.40;;;9.20;;
21705;SDS011;11014;53.076;18.208;2023-11-21T15:08:57;17.25;;;9.82;;
21705;SDS011;11014;53.076;18.208;2023-11-21T15:11:35;16.40;;;9.95;;
21705;SDS011;11014;53.076;18.208;2023-11-21T15:14:06;14.38;;;8.38;;
21705;SDS011;11014;53.076;18.208;2023-11-21T15:16:40;14.93;;;8.05;;